Time;durP1;ratioP1;P1;durP2;ratioP2;P2;SDS_P1;SDS_P2;PMS_P1;PMS_P2;Temp;Humidity;BMP_temperature;BMP_pressure;BME280_temperature;BME280_humidity;BME280_pressure;Samples;Min_cycle;Max_cycle;Signal;HPM_P1;HPM_P2
2022/03/13 00:02:19;;;;;;;;;4.75;3.00;;;;;20.19;36.00;100595.47;5075901;27;45686;-46
2022/03/13 00:04:49;;;;;;;;;3.00;3.00;;;;;20.17;36.33;100606.09;5074808;28;45545;-46
2022/03/13 00:07:21;;;;;;;;;4.50;3.50;;;;;20.16;36.10;100606.16;5076116;27;45227;-50
2022/03/13 00:09:50;;;;;;;;;3.00;3.00;;;;;20.15;36.14;100604.47;5075044;28;45432;-50
2022/03/13 00:12:23;;;;;;;;;2.75;2.75;;;;;20.14;35.97;100600.13;5075866;27;46267;-63
2022/03/13 00:14:49;;;;;;;;;3.25;3.25;;;;;20.12;36.25;100602.88;5076047;27;45245;-61
2022/03/13 00:17:15;;;;;;;;;3.00;3.00;;;;;20.10;35.98;100602.09;5076227;27;45231;-53
2022/03/13 00:19:41;;;;;;;;;5.00;5.00;;;;;20.08;36.16;100596.94;5076227;27;45329;-57
2022/03/13 00:22:07;;;;;;;;;3.00;3.00;;;;;20.08;36.50;100602.19;5075827;27;45917;-59
2022/03/13 00:24:33;;;;;;;;;4.25;3.75;;;;;20.06;36.37;100601.44;5075860;27;45393;-57
2022/03/13 00:27:00;;;;;;;;;4.25;3.00;;;;;20.05;36.19;100593.63;5076326;28;45326;-57
2022/03/13 00:29:26;;;;;;;;;3.50;3.50;;;;;20.03;35.99;100601.59;5076681;27;45496;-60
2022/03/13 00:31:52;;;;;;;;;3.50;3.00;;;;;20.02;36.39;100594.63;5079054;27;45660;-63
2022/03/13 00:34:18;;;;;;;;;5.00;3.50;;;;;20.03;36.49;100603.41;5079270;27;45464;-57
2022/03/13 00:36:43;;;;;;;;;3.25;3.25;;;;;20.03;36.04;100603.41;5079180;27;45383;-58
2022/03/13 00:39:09;;;;;;;;;3.50;3.25;;;;;19.99;36.29;100600.09;5079373;27;45506;-55
2022/03/13 00:41:35;;;;;;;;;3.25;2.75;;;;;19.99;36.61;100594.84;5078434;27;45411;-58
2022/03/13 00:44:01;;;;;;;;;3.00;3.00;;;;;19.98;36.49;100597.53;5079319;27;45281;-59
2022/03/13 00:46:26;;;;;;;;;3.00;3.00;;;;;19.97;36.51;100596.69;5079080;27;45322;-62
2022/03/13 00:48:52;;;;;;;;;6.00;4.50;;;;;19.96;36.15;100589.75;5079208;28;46104;-63
2022/03/13 00:51:18;;;;;;;;;4.50;3.50;;;;;19.96;36.18;100589.75;5078742;27;47236;-58
2022/03/13 00:53:43;;;;;;;;;4.25;3.00;;;;;19.95;36.35;100588.03;5077099;27;45421;-53
2022/03/13 00:56:10;;;;;;;;;3.00;3.00;;;;;19.94;36.15;100586.34;5078649;27;45308;-61
2022/03/13 00:58:37;;;;;;;;;3.00;3.00;;;;;19.93;36.37;100584.66;5079207;27;45504;-63
2022/03/13 01:01:03;;;;;;;;;3.75;3.75;;;;;19.93;36.49;100587.28;5078589;27;46436;-58
2022/03/13 01:03:51;;;;;;;;;3.00;3.00;;;;;19.91;36.53;100589.13;5077819;28;45490;-57
2022/03/13 01:06:18;;;;;;;;;4.00;3.75;;;;;19.92;36.31;100593.47;5078700;27;45309;-62
2022/03/13 01:08:44;;;;;;;;;3.75;3.75;;;;;19.91;36.52;100590.00;5078797;27;45346;-61
2022/03/13 01:11:10;;;;;;;;;2.00;2.00;;;;;19.88;36.62;100577.03;5078328;27;45754;-55
2022/03/13 01:13:36;;;;;;;;;3.00;3.00;;;;;19.89;36.51;100577.88;5077311;28;45860;-58
2022/03/13 01:16:17;;;;;;;;;4.25;4.00;;;;;19.87;36.34;100570.06;5078769;28;45433;-59
2022/03/13 01:18:48;;;;;;;;;2.75;2.75;;;;;19.87;36.48;100571.84;5078777;27;45313;-59
2022/03/13 01:21:15;;;;;;;;;2.50;2.50;;;;;19.86;36.33;100568.38;5078245;27;46778;-59
2022/03/13 01:23:54;;;;;;;;;4.00;4.00;;;;;19.86;36.69;100567.53;5078496;27;45473;-63
2022/03/13 01:26:22;;;;;;;;;4.00;3.50;;;;;19.85;36.39;100568.44;5078543;27;45518;-60
2022/03/13 01:28:52;;;;;;;;;4.75;3.75;;;;;19.84;36.37;100559.69;5077381;28;45390;-56
2022/03/13 01:31:24;;;;;;;;;3.75;3.75;;;;;19.85;36.06;100555.28;5078028;27;46308;-58
2022/03/13 01:33:49;;;;;;;;;2.75;2.75;;;;;19.84;36.04;100553.56;5078404;27;45941;-56
2022/03/13 01:36:15;;;;;;;;;3.00;3.00;;;;;19.84;36.29;100543.06;5078398;27;45251;-60
2022/03/13 01:38:40;;;;;;;;;3.50;2.50;;;;;19.84;36.51;100558.84;5078663;27;45546;-55
2022/03/13 01:41:07;;;;;;;;;2.75;2.50;;;;;19.84;36.68;100550.94;5077480;28;45254;-46
2022/03/13 01:43:33;;;;;;;;;2.00;2.00;;;;;19.81;36.23;100543.22;5078337;27;45759;-50
2022/03/13 01:45:59;;;;;;;;;2.50;2.00;;;;;19.81;36.57;100544.09;5078377;28;45488;-52
2022/03/13 01:48:29;;;;;;;;;2.50;2.50;;;;;19.82;36.50;100550.19;5078223;27;45592;-59
2022/03/13 01:50:55;;;;;;;;;2.00;2.00;;;;;19.82;36.31;100537.03;5077773;27;46289;-48
2022/03/13 01:53:21;;;;;;;;;2.00;2.00;;;;;19.80;36.16;100544.16;5077884;27;45227;-52
2022/03/13 01:55:54;;;;;;;;;2.00;2.00;;;;;19.80;36.49;100536.25;5078157;28;45219;-51
2022/03/13 01:58:20;;;;;;;;;3.00;3.00;;;;;19.79;36.30;100530.19;5077296;28;45371;-50
2022/03/13 02:00:46;;;;;;;;;2.00;2.00;;;;;19.80;36.31;100538.91;5077804;27;47180;-56
2022/03/13 02:03:12;;;;;;;;;4.25;2.75;;;;;19.80;36.32;100520.50;5077829;27;45227;-61
2022/03/13 02:05:38;;;;;;;;;4.00;2.50;;;;;19.78;36.44;100521.44;5077869;27;45326;-59
2022/03/13 02:08:18;;;;;;;;;3.00;3.00;;;;;19.80;36.56;100512.59;5078491;28;45280;-59
2022/03/13 02:10:43;;;;;;;;;3.00;3.00;;;;;19.78;36.66;100513.56;5076355;27;47554;-56
2022/03/13 02:13:10;;;;;;;;;2.00;2.00;;;;;19.77;36.30;100511.00;5077674;27;45361;-55
2022/03/13 02:15:37;;;;;;;;;3.75;2.75;;;;;19.78;36.49;100504.81;5077855;27;45423;-54
2022/03/13 02:18:04;;;;;;;;;2.00;2.00;;;;;19.77;36.63;100500.47;5078143;27;45247;-62
2022/03/13 02:20:29;;;;;;;;;2.00;2.00;;;;;19.74;36.19;100491.00;5077535;27;45358;-60
2022/03/13 02:23:05;;;;;;;;;2.00;2.00;;;;;19.75;36.52;100495.31;5077414;27;45360;-58
2022/03/13 02:25:34;;;;;;;;;3.00;3.00;;;;;19.75;36.55;100497.97;5077685;27;45264;-62
2022/03/13 02:28:00;;;;;;;;;3.00;2.00;;;;;19.74;36.41;100485.75;5077749;27;45243;-59
2022/03/13 02:30:26;;;;;;;;;0.00;0.00;;;;;19.75;36.32;100478.69;5077225;27;45278;-61
2022/03/13 02:32:52;;;;;;;;;3.00;3.00;;;;;19.74;36.39;100485.75;5077185;27;45268;-60
2022/03/13 02:35:18;;;;;;;;;3.75;3.75;;;;;19.75;36.46;100481.31;5077387;27;45294;-60
2022/03/13 02:37:44;;;;;;;;;5.00;3.00;;;;;19.71;36.59;100474.56;5077491;27;45612;-60
2022/03/13 02:40:35;;;;;;;;;3.00;3.00;;;;;19.73;36.65;100470.91;5077097;27;46179;-62
2022/03/13 02:43:01;;;;;;;;;3.75;3.75;;;;;19.74;36.53;100471.72;5074279;27;45250;-63
2022/03/13 02:45:32;;;;;;;;;2.50;2.00;;;;;19.73;36.32;100470.06;5077395;27;45389;-61
2022/03/13 02:48:00;;;;;;;;;2.00;2.00;;;;;19.71;36.70;100474.56;5077292;27;45255;-55
2022/03/13 02:50:26;;;;;;;;;3.00;3.00;;;;;19.71;36.76;100471.94;5076959;27;45429;-56
2022/03/13 02:52:51;;;;;;;;;5.75;4.00;;;;;19.70;36.51;100473.69;5075905;27;45256;-60
2022/03/13 02:55:18;;;;;;;;;2.75;2.75;;;;;19.71;36.54;100467.50;5058870;28;45357;-56
2022/03/13 02:57:43;;;;;;;;;3.00;3.00;;;;;19.71;36.27;100466.66;5077103;28;45222;-51
2022/03/13 03:00:09;;;;;;;;;3.50;3.50;;;;;19.68;36.52;100465.03;5077078;27;46056;-48
2022/03/13 03:02:35;;;;;;;;;2.75;2.00;;;;;19.69;36.27;100461.47;5077236;27;45444;-56
2022/03/13 03:05:06;;;;;;;;;2.50;2.50;;;;;19.69;36.50;100465.91;5076999;27;45273;-60
2022/03/13 03:07:31;;;;;;;;;4.25;4.25;;;;;19.67;36.42;100457.25;5077213;27;45304;-55
2022/03/13 03:09:57;;;;;;;;;1.75;1.75;;;;;19.67;36.64;100455.50;5075409;27;47066;-56
2022/03/13 03:12:23;;;;;;;;;4.25;4.25;;;;;19.66;36.39;100456.41;5076570;27;45380;-61
2022/03/13 03:14:48;;;;;;;;;2.50;2.50;;;;;19.66;36.30;100464.31;5076725;27;45252;-57
2022/03/13 03:17:13;;;;;;;;;1.50;1.50;;;;;19.68;36.63;100469.47;5077033;27;45338;-57
2022/03/13 03:19:39;;;;;;;;;3.00;3.00;;;;;19.66;36.55;100466.94;5076844;27;46102;-60
2022/03/13 03:22:04;;;;;;;;;3.00;3.00;;;;;19.66;36.62;100461.69;5076545;27;45417;-65
2022/03/13 03:24:30;;;;;;;;;1.00;0.00;;;;;19.66;36.49;100455.56;5076929;28;45406;-55
2022/03/13 03:26:55;;;;;;;;;3.00;3.00;;;;;19.65;36.66;100454.72;5076934;27;45381;-54
2022/03/13 03:29:23;;;;;;;;;3.00;3.00;;;;;19.65;36.22;100454.72;5076594;27;46247;-55
2022/03/13 03:31:49;;;;;;;;;3.00;2.00;;;;;19.64;36.30;100458.28;5076409;28;45307;-53
2022/03/13 03:34:17;;;;;;;;;2.75;2.50;;;;;19.65;36.26;100459.97;5076574;27;45220;-55
2022/03/13 03:36:46;;;;;;;;;5.25;3.00;;;;;19.63;36.33;100456.59;5076625;27;45325;-47
2022/03/13 03:39:12;;;;;;;;;3.00;3.00;;;;;19.63;36.20;100453.97;5076271;28;46261;-52
2022/03/13 03:41:38;;;;;;;;;2.50;2.50;;;;;19.63;36.53;100453.97;5076813;27;45320;-49
2022/03/13 03:44:04;;;;;;;;;3.50;2.75;;;;;19.62;36.60;100453.09;5076631;27;45391;-46
2022/03/13 03:46:30;;;;;;;;;3.00;3.00;;;;;19.62;36.71;100449.63;5075275;28;45439;-54
2022/03/13 03:48:55;;;;;;;;;3.25;3.00;;;;;19.62;36.84;100450.47;5076330;27;45675;-48
2022/03/13 03:51:21;;;;;;;;;2.00;2.00;;;;;19.62;36.52;100447.00;5074906;28;45198;-63
2022/03/13 03:53:46;;;;;;;;;4.00;3.25;;;;;19.61;36.50;100448.81;5076453;27;45748;-59
2022/03/13 03:56:11;;;;;;;;;3.75;3.75;;;;;19.61;36.60;100450.56;5076927;27;45227;-48
2022/03/13 03:58:37;;;;;;;;;2.75;2.75;;;;;19.60;36.53;100448.88;5076537;27;46583;-63
2022/03/13 04:01:02;;;;;;;;;4.00;3.00;;;;;19.60;36.02;100451.50;5074966;27;45316;-55
2022/03/13 04:03:27;;;;;;;;;3.00;3.00;;;;;19.60;36.47;100449.72;5077099;27;45359;-57
2022/03/13 04:05:53;;;;;;;;;3.00;3.00;;;;;19.58;36.35;100445.47;5079902;27;45323;-53
2022/03/13 04:08:18;;;;;;;;;1.75;1.75;;;;;19.59;36.65;100441.91;5079577;27;46161;-50
2022/03/13 04:10:43;;;;;;;;;3.00;3.00;;;;;19.58;36.34;100442.84;5079672;27;45370;-48
2022/03/13 04:13:08;;;;;;;;;2.75;2.75;;;;;19.57;36.19;100443.78;5079931;27;45390;-55
2022/03/13 04:15:34;;;;;;;;;2.00;2.00;;;;;19.57;36.55;100443.78;5080022;27;45786;-49
2022/03/13 04:17:59;;;;;;;;;2.00;2.00;;;;;19.57;36.21;100451.66;5079658;27;45404;-50
2022/03/13 04:20:24;;;;;;;;;2.75;2.75;;;;;19.58;36.35;100453.34;5079435;27;45410;-48
2022/03/13 04:22:50;;;;;;;;;3.25;3.25;;;;;19.57;36.21;100451.66;5079689;27;45377;-60
2022/03/13 04:25:17;;;;;;;;;3.00;2.25;;;;;19.56;36.40;100455.25;5079838;27;45468;-59
2022/03/13 04:27:42;;;;;;;;;2.00;2.00;;;;;19.55;36.64;100449.13;5078366;27;48448;-55
2022/03/13 04:30:08;;;;;;;;;1.50;1.25;;;;;19.55;36.29;100454.38;5079369;27;45329;-55
2022/03/13 04:32:34;;;;;;;;;3.50;2.00;;;;;19.53;36.44;100456.25;5079401;27;45486;-56
2022/03/13 04:34:59;;;;;;;;;3.50;3.25;;;;;19.55;36.50;100462.28;5078110;27;45544;-62
2022/03/13 04:37:27;;;;;;;;;2.00;2.00;;;;;19.54;36.00;100459.75;5079300;27;45170;-56
2022/03/13 04:39:52;;;;;;;;;4.00;3.50;;;;;19.53;36.49;100460.69;5079116;27;45211;-60
2022/03/13 04:42:18;;;;;;;;;4.25;4.00;;;;;19.53;36.41;100458.06;5079389;27;45332;-58
2022/03/13 04:44:44;;;;;;;;;3.50;2.75;;;;;19.52;36.33;100457.19;5079640;27;45355;-54
2022/03/13 04:47:10;;;;;;;;;4.25;4.25;;;;;19.52;36.55;100459.81;5079212;27;45420;-60
2022/03/13 04:49:35;;;;;;;;;3.00;3.00;;;;;19.51;36.10;100462.53;5079034;27;45586;-60
2022/03/13 04:52:00;;;;;;;;;3.75;3.00;;;;;19.51;36.43;100460.78;5078915;27;45466;-60
2022/03/13 04:54:26;;;;;;;;;2.25;2.25;;;;;19.51;36.17;100458.16;5079222;27;45493;-58
2022/03/13 04:56:52;;;;;;;;;3.00;3.00;;;;;19.51;36.62;100457.28;5078978;27;45910;-61
2022/03/13 04:59:17;;;;;;;;;3.00;3.00;;;;;19.50;36.42;100459.09;5077681;27;45451;-59
2022/03/13 05:01:42;;;;;;;;;2.00;2.00;;;;;19.49;36.49;100449.50;5078141;28;45411;-60
2022/03/13 05:04:08;;;;;;;;;4.25;3.00;;;;;19.46;36.00;100447.88;5077763;27;45572;-65
2022/03/13 05:06:40;;;;;;;;;4.50;3.50;;;;;19.46;35.97;100450.50;5078608;27;46093;-63
2022/03/13 05:09:06;;;;;;;;;3.00;3.00;;;;;19.44;36.28;100444.50;5078501;27;45917;-63
2022/03/13 05:11:31;;;;;;;;;2.25;2.25;;;;;19.43;36.21;100436.69;5078799;27;45539;-63
2022/03/13 05:13:57;;;;;;;;;3.25;3.00;;;;;19.41;36.01;100430.66;5078969;27;45373;-61
2022/03/13 05:16:22;;;;;;;;;3.25;3.25;;;;;19.40;36.05;100439.50;5077424;27;46995;-61
2022/03/13 05:18:47;;;;;;;;;2.00;2.00;;;;;19.38;36.18;100431.69;5078611;27;45378;-63
2022/03/13 05:21:13;;;;;;;;;3.50;3.50;;;;;19.37;36.04;100432.63;5078902;27;45405;-61
2022/03/13 05:23:38;;;;;;;;;4.25;2.75;;;;;19.35;35.92;100434.50;5078784;27;45342;-63
2022/03/13 05:26:03;;;;;;;;;4.00;4.00;;;;;19.34;35.54;100439.84;5077229;28;45399;-60
2022/03/13 05:28:29;;;;;;;;;3.00;3.00;;;;;19.29;35.22;100437.47;5077296;28;45471;-62
2022/03/13 05:30:54;;;;;;;;;3.25;3.25;;;;;19.20;35.26;100444.09;5078503;27;45467;-60
2022/03/13 05:33:20;;;;;;;;;2.25;2.25;;;;;19.10;35.16;100449.03;5078597;27;45319;-63
2022/03/13 05:35:45;;;;;;;;;2.00;2.00;;;;;19.02;35.66;100453.00;5078487;27;45421;-58
2022/03/13 05:38:11;;;;;;;;;3.00;3.00;;;;;18.94;35.58;100453.41;5078313;27;45388;-54
2022/03/13 05:40:36;;;;;;;;;3.75;3.75;;;;;18.87;35.39;100446.78;5078339;27;45368;-56
2022/03/13 05:43:03;;;;;;;;;4.00;3.00;;;;;18.80;35.63;100449.72;5078492;27;45555;-64
2022/03/13 05:45:30;;;;;;;;;4.00;4.00;;;;;18.76;35.55;100456.09;5076801;27;45502;-64
2022/03/13 05:48:01;;;;;;;;;4.00;3.00;;;;;18.70;35.39;100457.25;5077967;27;45314;-62
2022/03/13 05:50:28;;;;;;;;;4.00;3.00;;;;;18.66;35.68;100457.50;5078184;27;45557;-61
2022/03/13 05:52:57;;;;;;;;;3.00;2.50;;;;;18.60;35.52;100448.19;5078391;27;45524;-59
2022/03/13 05:55:26;;;;;;;;;2.25;2.25;;;;;18.59;35.55;100464.00;5078015;27;46011;-61
2022/03/13 05:57:56;;;;;;;;;2.75;2.75;;;;;18.54;35.63;100462.47;5078145;27;45267;-63
2022/03/13 06:00:24;;;;;;;;;3.00;3.00;;;;;18.49;35.65;100464.50;5078075;27;45372;-64
2022/03/13 06:02:50;;;;;;;;;3.00;3.00;;;;;18.46;35.50;100459.44;5078422;27;45518;-61
2022/03/13 06:05:17;;;;;;;;;3.00;3.00;;;;;18.45;35.70;100467.34;5077984;27;46425;-60
2022/03/13 06:07:44;;;;;;;;;2.25;2.25;;;;;18.41;35.79;100469.31;5077881;27;45768;-61
2022/03/13 06:10:09;;;;;;;;;3.25;3.25;;;;;18.36;35.57;100464.28;5078009;27;45477;-60
2022/03/13 06:12:36;;;;;;;;;5.00;2.00;;;;;18.33;35.63;100468.84;5078001;27;45298;-63
2022/03/13 06:15:04;;;;;;;;;3.00;3.00;;;;;18.31;35.69;100473.34;5077308;27;45436;-64
2022/03/13 06:17:29;;;;;;;;;2.75;2.75;;;;;18.29;35.68;100472.56;5077758;27;45278;-62
2022/03/13 06:19:55;;;;;;;;;3.50;2.00;;;;;18.28;35.61;100471.72;5077736;27;45330;-63
2022/03/13 06:22:22;;;;;;;;;3.25;3.00;;;;;18.26;35.84;100480.56;5077986;27;45382;-61
2022/03/13 06:24:48;;;;;;;;;3.25;2.00;;;;;18.24;35.64;100473.63;5077739;27;46494;-47
2022/03/13 06:27:13;;;;;;;;;2.00;2.00;;;;;18.22;35.89;100480.75;5077580;27;45345;-49
2022/03/13 06:29:40;;;;;;;;;2.00;2.00;;;;;18.21;35.74;100479.06;5077569;27;45527;-57
2022/03/13 06:32:06;;;;;;;;;4.00;3.00;;;;;18.20;35.75;100490.47;5077610;27;45558;-63
2022/03/13 06:34:31;;;;;;;;;3.00;3.00;;;;;18.17;35.85;100485.38;5076080;28;48708;-60
2022/03/13 06:36:57;;;;;;;;;1.50;1.50;;;;;18.14;36.01;100480.28;5077511;28;45476;-59
2022/03/13 06:39:23;;;;;;;;;4.00;2.00;;;;;18.13;35.79;100489.09;5077542;27;45479;-57
2022/03/13 06:41:49;;;;;;;;;1.75;1.75;;;;;18.11;35.93;100490.94;5077930;27;45444;-62
2022/03/13 06:44:14;;;;;;;;;3.00;2.00;;;;;18.07;35.98;100490.25;5077303;27;47058;-60
2022/03/13 06:46:40;;;;;;;;;2.00;2.00;;;;;18.07;35.76;100492.00;5077428;27;45756;-62
2022/03/13 06:49:05;;;;;;;;;4.00;3.00;;;;;18.04;35.79;100494.78;5077446;27;45377;-63
2022/03/13 06:51:34;;;;;;;;;2.00;2.00;;;;;18.04;35.79;100494.78;5077501;27;45576;-63
2022/03/13 06:53:59;;;;;;;;;2.00;2.00;;;;;18.02;35.91;100491.41;5077027;27;46535;-60
2022/03/13 06:56:25;;;;;;;;;2.00;2.00;;;;;18.01;35.88;100484.47;5077084;27;45397;-59
2022/03/13 06:58:52;;;;;;;;;4.50;3.00;;;;;18.01;35.78;100489.72;5077283;27;45416;-55
2022/03/13 07:01:18;;;;;;;;;4.00;2.25;;;;;18.01;35.91;100500.19;5077716;27;45317;-55
2022/03/13 07:03:43;;;;;;;;;2.00;2.00;;;;;17.99;36.02;100491.56;5076942;27;45449;-59
2022/03/13 07:06:09;;;;;;;;;4.50;4.00;;;;;18.00;35.84;100490.63;5076921;27;45441;-58
2022/03/13 07:08:34;;;;;;;;;2.00;2.00;;;;;17.97;35.83;100494.22;5077111;27;45440;-63
2022/03/13 07:11:01;;;;;;;;;4.00;4.00;;;;;17.97;35.86;100493.41;5077335;28;45318;-63
2022/03/13 07:13:33;;;;;;;;;2.00;2.00;;;;;17.96;36.16;100489.03;5076861;27;47340;-62
2022/03/13 07:16:03;;;;;;;;;2.00;2.00;;;;;17.96;35.98;100494.28;5075369;27;46023;-62
2022/03/13 07:18:31;;;;;;;;;3.50;3.50;;;;;17.96;35.98;100489.03;5076884;27;45309;-63
2022/03/13 07:20:57;;;;;;;;;2.50;2.50;;;;;17.98;35.82;100484.63;5077056;27;45620;-57
2022/03/13 07:23:23;;;;;;;;;3.00;3.00;;;;;17.97;35.85;100483.75;5076734;27;45999;-56
2022/03/13 07:25:52;;;;;;;;;3.25;2.75;;;;;17.98;35.83;100482.81;5092682;27;45761;-56
2022/03/13 07:28:18;;;;;;;;;2.50;2.50;;;;;17.97;35.84;100480.28;5077073;27;45425;-64
2022/03/13 07:30:44;;;;;;;;;2.00;2.00;;;;;17.97;35.81;100478.50;5076991;27;45283;-57
2022/03/13 07:33:10;;;;;;;;;4.00;3.00;;;;;17.99;35.76;100481.06;5075231;28;46142;-56
2022/03/13 07:35:36;;;;;;;;;3.75;3.75;;;;;17.99;35.91;100489.78;5076185;27;45918;-49
2022/03/13 07:38:02;;;;;;;;;3.25;3.00;;;;;17.99;35.79;100483.69;5076394;28;45460;-58
2022/03/13 07:40:27;;;;;;;;;2.00;2.00;;;;;17.99;35.95;100489.78;5083736;27;45640;-59
2022/03/13 07:42:53;;;;;;;;;2.00;2.00;;;;;17.96;35.80;100487.28;5081732;28;45872;-50
2022/03/13 07:45:18;;;;;;;;;3.50;3.00;;;;;17.97;35.84;100498.66;5083527;27;45283;-61
2022/03/13 07:47:44;;;;;;;;;4.50;3.00;;;;;17.97;35.71;100496.84;5083293;27;45401;-58
2022/03/13 07:50:10;;;;;;;;;2.00;2.00;;;;;17.98;35.82;100497.72;5083546;27;45306;-62
2022/03/13 07:52:35;;;;;;;;;2.00;2.00;;;;;17.97;35.79;100498.66;5082877;27;46403;-56
2022/03/13 07:55:01;;;;;;;;;3.75;1.75;;;;;17.98;35.76;100489.84;5083105;27;45339;-55
2022/03/13 07:57:28;;;;;;;;;3.00;2.00;;;;;17.96;35.72;100492.53;5083368;27;45305;-48
2022/03/13 07:59:54;;;;;;;;;2.25;2.00;;;;;17.99;35.75;100497.63;5083494;27;45788;-50
2022/03/13 08:02:19;;;;;;;;;1.75;1.75;;;;;17.99;35.62;100487.16;5065048;28;47401;-51
2022/03/13 08:04:45;;;;;;;;;2.50;2.50;;;;;17.99;35.76;100489.78;5082966;27;45331;-47
2022/03/13 08:07:10;;;;;;;;;2.25;2.25;;;;;18.03;35.59;100493.06;5083065;27;45502;-48
2022/03/13 08:09:36;;;;;;;;;2.00;2.00;;;;;18.02;35.53;100496.66;5083145;27;45326;-51
2022/03/13 08:12:02;;;;;;;;;3.00;3.00;;;;;18.03;35.66;100485.22;5082686;27;47084;-53
2022/03/13 08:14:28;;;;;;;;;2.00;2.00;;;;;18.04;35.46;100484.28;5082781;27;46083;-56
2022/03/13 08:16:53;;;;;;;;;1.00;1.00;;;;;18.03;35.49;100477.34;5083394;27;45326;-58
2022/03/13 08:19:18;;;;;;;;;2.00;2.00;;;;;18.04;35.60;100481.66;5081975;27;45622;-54
2022/03/13 08:21:44;;;;;;;;;2.00;2.00;;;;;18.02;35.62;100486.16;5082800;27;46685;-64
2022/03/13 08:24:13;;;;;;;;;5.00;2.00;;;;;18.03;35.66;100482.59;5082710;27;45368;-56
2022/03/13 08:26:38;;;;;;;;;1.50;1.50;;;;;18.03;35.50;100483.44;5082898;27;45283;-59
2022/03/13 08:29:05;;;;;;;;;2.00;2.00;;;;;18.05;35.42;100481.59;5082911;27;45176;-51
2022/03/13 08:31:32;;;;;;;;;2.00;2.00;;;;;18.07;35.42;100484.16;5082469;27;45947;-60
2022/03/13 08:33:58;;;;;;;;;3.00;2.00;;;;;18.10;35.43;100476.13;5082560;27;45966;-60
2022/03/13 08:36:23;;;;;;;;;1.75;1.75;;;;;18.12;35.28;100476.91;5083085;27;45351;-57
2022/03/13 08:38:49;;;;;;;;;0.75;0.75;;;;;18.12;35.47;100466.41;5082747;27;45317;-60
2022/03/13 08:41:14;;;;;;;;;2.00;2.00;;;;;18.17;35.37;100474.88;5082534;27;45925;-55
2022/03/13 08:43:39;;;;;;;;;1.25;0.00;;;;;18.18;35.37;100470.50;5082539;27;45377;-50
2022/03/13 08:46:05;;;;;;;;;3.25;2.75;;;;;18.21;35.33;100470.31;5082688;27;45428;-54
2022/03/13 08:48:31;;;;;;;;;2.00;2.00;;;;;18.23;35.27;100473.72;5082659;27;45339;-56
2022/03/13 08:50:57;;;;;;;;;2.00;2.00;;;;;18.26;35.34;100484.06;5077484;27;45359;-61
2022/03/13 08:53:23;;;;;;;;;2.00;2.00;;;;;18.26;35.31;100472.69;5079199;27;45743;-55
2022/03/13 08:55:49;;;;;;;;;3.00;2.00;;;;;18.27;35.10;100474.41;5079290;27;45174;-51
2022/03/13 08:58:14;;;;;;;;;2.00;2.00;;;;;18.27;35.20;100469.16;5079413;27;45338;-55
2022/03/13 09:00:40;;;;;;;;;2.00;2.00;;;;;18.28;35.44;100476.09;5078851;27;46254;-58
2022/03/13 09:03:07;;;;;;;;;2.00;2.00;;;;;18.28;35.08;100470.84;5078821;27;45413;-58
2022/03/13 09:05:32;;;;;;;;;2.00;2.00;;;;;18.27;35.44;100469.16;5077677;28;45571;-61
2022/03/13 09:07:58;;;;;;;;;3.50;2.50;;;;;18.26;35.24;100480.56;5079069;27;45436;-58
2022/03/13 09:10:24;;;;;;;;;2.00;2.00;;;;;18.24;35.32;100480.66;5078938;27;45321;-63
2022/03/13 09:12:49;;;;;;;;;2.00;2.00;;;;;18.23;35.42;100479.81;5078665;27;45360;-59
2022/03/13 09:15:15;;;;;;;;;1.75;1.75;;;;;18.27;35.65;100484.91;5078593;27;45290;-62
2022/03/13 09:17:44;;;;;;;;;2.00;2.00;;;;;18.28;35.42;100476.09;5077719;28;45597;-61
2022/03/13 09:20:09;;;;;;;;;2.00;2.00;;;;;18.31;35.58;100475.94;5078559;27;46195;-54
2022/03/13 09:22:35;;;;;;;;;2.50;2.50;;;;;18.30;35.36;100474.25;5078459;27;45426;-61
2022/03/13 09:25:02;;;;;;;;;1.00;1.00;;;;;18.30;35.23;100479.50;5078668;27;45371;-62
2022/03/13 09:27:29;;;;;;;;;3.75;1.75;;;;;18.29;35.24;100477.81;5079105;27;45435;-60
2022/03/13 09:29:56;;;;;;;;;1.75;1.75;;;;;18.28;35.18;100481.34;5078845;27;47058;-62
2022/03/13 09:32:23;;;;;;;;;3.00;1.75;;;;;18.26;35.33;100480.56;5078390;27;45716;-57
2022/03/13 09:34:49;;;;;;;;;1.50;1.50;;;;;18.21;35.41;100476.44;5078443;27;45378;-63
2022/03/13 09:37:14;;;;;;;;;2.00;2.00;;;;;18.20;35.30;100479.97;5077463;28;45263;-60
2022/03/13 09:39:40;;;;;;;;;2.25;2.25;;;;;18.19;35.08;100480.91;5078203;27;45469;-58
2022/03/13 09:42:06;;;;;;;;;2.25;1.50;;;;;18.22;35.34;100479.88;5076958;28;45743;-61
2022/03/13 09:44:31;;;;;;;;;3.00;2.00;;;;;18.23;35.49;100476.34;5078276;27;45256;-58
2022/03/13 09:46:57;;;;;;;;;2.00;1.25;;;;;18.26;35.58;100481.44;5078787;28;45331;-62
2022/03/13 09:49:24;;;;;;;;;1.00;1.00;;;;;18.26;35.29;100460.44;5076785;27;45424;-59
2022/03/13 09:51:50;;;;;;;;;1.00;1.00;;;;;18.31;35.49;100481.19;5078228;27;45240;-62
2022/03/13 09:54:15;;;;;;;;;4.50;3.00;;;;;18.32;35.62;100482.91;5078335;27;45420;-61
2022/03/13 09:56:41;;;;;;;;;1.25;1.25;;;;;18.32;35.40;100488.97;5077187;28;45458;-62
2022/03/13 09:59:07;;;;;;;;;1.00;1.00;;;;;18.31;35.33;100481.19;5078058;27;45285;-56
2022/03/13 10:01:33;;;;;;;;;3.00;2.00;;;;;18.33;35.41;100482.81;5077573;27;45279;-62
2022/03/13 10:03:59;;;;;;;;;1.25;1.25;;;;;18.34;35.46;100481.06;5078387;27;45472;-58
2022/03/13 10:06:26;;;;;;;;;3.00;2.00;;;;;18.35;35.35;100488.00;5078390;27;45520;-60
2022/03/13 10:08:51;;;;;;;;;2.00;2.00;;;;;18.35;35.41;100483.59;5093466;27;46696;-59
2022/03/13 10:11:33;;;;;;;;;1.00;1.00;;;;;18.34;35.04;100471.38;5059668;28;45430;-61
2022/03/13 10:14:09;;;;;;;;;1.25;1.25;;;;;18.35;35.54;100473.09;5078417;27;45323;-62
2022/03/13 10:16:38;;;;;;;;;1.00;1.00;;;;;18.36;35.48;100471.31;5075864;27;45481;-64
2022/03/13 10:19:18;;;;;;;;;2.00;2.00;;;;;18.39;35.46;100484.28;5076214;27;45463;-62
2022/03/13 10:22:04;;;;;;;;;2.00;2.00;;;;;18.39;35.38;100477.25;5069875;27;46021;-60
2022/03/13 10:24:59;;;;;;;;;2.00;1.00;;;;;18.40;35.46;100491.22;5077756;28;45296;-62
2022/03/13 10:27:25;;;;;;;;;2.00;2.00;;;;;18.41;35.52;100477.16;5068381;27;45447;-63
2022/03/13 10:29:50;;;;;;;;;2.00;2.00;;;;;18.41;35.63;100476.34;5074751;28;46769;-61
2022/03/13 10:32:15;;;;;;;;;1.00;1.00;;;;;18.42;35.41;100473.63;5075588;28;45858;-60
2022/03/13 10:34:51;;;;;;;;;1.50;1.50;;;;;18.43;35.55;100456.94;5075713;28;45778;-61
2022/03/13 10:37:34;;;;;;;;;3.00;2.00;;;;;18.43;35.40;100456.94;5076380;28;45367;-60
2022/03/13 10:40:21;;;;;;;;;2.00;2.00;;;;;18.45;35.64;100469.97;5060418;28;47348;-60
2022/03/13 10:42:50;;;;;;;;;1.25;1.25;;;;;18.47;35.53;100460.25;5076929;27;45381;-57
2022/03/13 10:45:37;;;;;;;;;2.25;2.25;;;;;18.48;35.35;100459.34;5075551;28;45326;-58
2022/03/13 10:48:28;;;;;;;;;1.00;1.00;;;;;18.45;35.52;100460.34;5076731;27;45559;-57
2022/03/13 10:50:56;;;;;;;;;2.00;1.00;;;;;18.42;35.33;100457.88;5076733;28;46157;-60
2022/03/13 10:53:22;;;;;;;;;2.00;2.00;;;;;18.40;35.61;100457.09;5076582;27;45844;-57
2022/03/13 10:56:08;;;;;;;;;2.75;2.75;;;;;18.39;35.42;100463.28;5076518;27;45450;-56
2022/03/13 10:58:44;;;;;;;;;2.50;2.50;;;;;18.36;35.59;100452.94;5075451;27;45562;-62
2022/03/13 11:01:12;;;;;;;;;3.00;1.75;;;;;18.34;35.48;100460.06;5065218;28;46995;-49
2022/03/13 11:03:47;;;;;;;;;2.00;2.00;;;;;18.36;35.61;100459.03;5070932;28;45394;-49
2022/03/13 11:06:13;;;;;;;;;1.00;1.00;;;;;18.41;35.44;100456.19;5075765;27;45481;-54
2022/03/13 11:08:40;;;;;;;;;1.00;1.00;;;;;18.44;35.54;100465.66;5076046;28;45647;-52
2022/03/13 11:11:06;;;;;;;;;1.75;1.75;;;;;18.48;35.55;100461.97;5076125;28;45381;-59
2022/03/13 11:13:33;;;;;;;;;2.00;2.00;;;;;18.52;35.35;100468.75;5074507;28;45825;-60
2022/03/13 11:15:58;;;;;;;;;1.75;1.75;;;;;18.54;35.62;100459.88;5076361;27;45306;-59
2022/03/13 11:18:36;;;;;;;;;1.00;1.00;;;;;18.57;35.35;100463.25;5075091;28;45699;-60
2022/03/13 11:21:06;;;;;;;;;1.00;1.00;;;;;18.60;35.17;100461.31;5076543;27;45491;-59
2022/03/13 11:23:33;;;;;;;;;1.25;1.25;;;;;18.62;35.19;100469.09;5076772;27;45796;-57
2022/03/13 11:25:59;;;;;;;;;1.25;1.00;;;;;18.63;35.22;100462.91;5075516;28;45316;-51